SAWH/USH METAR and TAF weather

Enter ICAO airport designator
Station Type Date Time Source
SAWH METAR 2020/07/12 03:00 UTC NOAA

SAWH 120300Z 23015KT 9999 FEW040 02/M02 Q0998


Station Type Date Time Source
SAWH Decoded METAR 2020/07/12 03:00 UTC NOAA

Ushuaia Aerodrome, Argentina (SAWH) 54-48S 068-19W 14M
Jul 11, 2020 - 11:00 PM EDT / 2020.07.12 0300 UTC
Wind: from the SW (230 degrees) at 17 MPH (15 KT):0
Visibility: greater than 7 mile(s):0
Sky conditions: mostly clear
Temperature: 35 F (2 C)
Windchill: 24 F (-4 C):1
Dew Point: 28 F (-2 C)
Relative Humidity: 74%
Pressure (altimeter): 29.47 in. Hg (0998 hPa)
ob: SAWH 120300Z 23015KT 9999 FEW040 02/M02 Q0998
cycle: 3

Station Type Date Time Source
SAWH TAF 2020/07/12 00:07 UTC NOAA

TAF SAWH 112300Z 1200/1224 23015KT 9999 SCT030 TX00/1218Z TNM03/1212Z
BECMG 1203/1205 20010KT SCT015 SCT030
BECMG 1212/1214 -SHSN BKN020

Example: see airport list